sensor_id;sensor_type;location;lat;lon;timestamp;P1;durP1;ratioP1;P2;durP2;ratioP2
7025;SDS011;3554;42.132;24.786;2022-07-29T00:00:04;2.90;;;2.80;;
7025;SDS011;3554;42.132;24.786;2022-07-29T00:02:32;3.07;;;2.97;;
7025;SDS011;3554;42.132;24.786;2022-07-29T00:04:58;2.70;;;2.60;;
7025;SDS011;3554;42.132;24.786;2022-07-29T00:07:25;3.53;;;3.23;;
7025;SDS011;3554;42.132;24.786;2022-07-29T00:09:52;3.37;;;3.07;;
7025;SDS011;3554;42.132;24.786;2022-07-29T00:12:20;3.43;;;3.23;;
7025;SDS011;3554;42.132;24.786;2022-07-29T00:14:48;3.60;;;3.27;;
7025;SDS011;3554;42.132;24.786;2022-07-29T00:17:15;3.50;;;3.20;;
7025;SDS011;3554;42.132;24.786;2022-07-29T00:19:42;4.10;;;3.80;;
7025;SDS011;3554;42.132;24.786;2022-07-29T00:22:09;4.40;;;4.10;;
7025;SDS011;3554;42.132;24.786;2022-07-29T00:24:36;4.50;;;4.10;;
7025;SDS011;3554;42.132;24.786;2022-07-29T00:27:02;4.63;;;4.33;;
7025;SDS011;3554;42.132;24.786;2022-07-29T00:29:30;5.47;;;5.17;;
7025;SDS011;3554;42.132;24.786;2022-07-29T00:31:58;4.40;;;4.20;;
7025;SDS011;3554;42.132;24.786;2022-07-29T00:34:25;4.50;;;4.20;;
7025;SDS011;3554;42.132;24.786;2022-07-29T00:37:09;5.97;;;4.57;;
7025;SDS011;3554;42.132;24.786;2022-07-29T00:39:36;5.40;;;5.00;;
7025;SDS011;3554;42.132;24.786;2022-07-29T00:42:03;5.40;;;5.20;;
7025;SDS011;3554;42.132;24.786;2022-07-29T00:44:30;6.00;;;5.43;;
7025;SDS011;3554;42.132;24.786;2022-07-29T00:47:04;5.53;;;5.23;;
7025;SDS011;3554;42.132;24.786;2022-07-29T00:49:32;6.07;;;5.57;;
7025;SDS011;3554;42.132;24.786;2022-07-29T00:52:00;5.93;;;5.40;;
7025;SDS011;3554;42.132;24.786;2022-07-29T00:54:27;5.53;;;5.23;;
7025;SDS011;3554;42.132;24.786;2022-07-29T00:56:54;5.83;;;5.23;;
7025;SDS011;3554;42.132;24.786;2022-07-29T00:59:22;4.97;;;4.67;;
7025;SDS011;3554;42.132;24.786;2022-07-29T01:01:49;5.67;;;5.17;;
7025;SDS011;3554;42.132;24.786;2022-07-29T01:04:18;4.83;;;4.63;;
7025;SDS011;3554;42.132;24.786;2022-07-29T01:06:45;5.30;;;4.93;;
7025;SDS011;3554;42.132;24.786;2022-07-29T01:09:13;5.70;;;5.30;;
7025;SDS011;3554;42.132;24.786;2022-07-29T01:11:42;6.30;;;5.87;;
7025;SDS011;3554;42.132;24.786;2022-07-29T01:14:09;6.80;;;6.13;;
7025;SDS011;3554;42.132;24.786;2022-07-29T01:16:38;6.90;;;6.60;;
7025;SDS011;3554;42.132;24.786;2022-07-29T01:19:13;6.37;;;5.90;;
7025;SDS011;3554;42.132;24.786;2022-07-29T01:21:57;6.17;;;5.67;;
7025;SDS011;3554;42.132;24.786;2022-07-29T01:24:38;6.97;;;6.40;;
7025;SDS011;3554;42.132;24.786;2022-07-29T01:27:16;7.03;;;6.27;;
7025;SDS011;3554;42.132;24.786;2022-07-29T01:29:56;6.50;;;6.20;;
7025;SDS011;3554;42.132;24.786;2022-07-29T01:32:26;6.47;;;5.87;;
7025;SDS011;3554;42.132;24.786;2022-07-29T01:34:56;7.07;;;6.53;;
7025;SDS011;3554;42.132;24.786;2022-07-29T01:37:29;6.90;;;6.50;;
7025;SDS011;3554;42.132;24.786;2022-07-29T01:39:59;7.00;;;6.40;;
7025;SDS011;3554;42.132;24.786;2022-07-29T01:42:30;6.97;;;6.37;;
7025;SDS011;3554;42.132;24.786;2022-07-29T01:45:07;7.37;;;6.87;;
7025;SDS011;3554;42.132;24.786;2022-07-29T01:47:39;7.90;;;7.30;;
7025;SDS011;3554;42.132;24.786;2022-07-29T01:50:11;7.17;;;6.83;;
7025;SDS011;3554;42.132;24.786;2022-07-29T01:52:43;7.87;;;7.37;;
7025;SDS011;3554;42.132;24.786;2022-07-29T01:55:13;7.87;;;7.40;;
7025;SDS011;3554;42.132;24.786;2022-07-29T01:57:44;7.43;;;7.03;;
7025;SDS011;3554;42.132;24.786;2022-07-29T02:00:15;7.40;;;6.73;;
7025;SDS011;3554;42.132;24.786;2022-07-29T02:02:43;7.77;;;7.37;;
7025;SDS011;3554;42.132;24.786;2022-07-29T02:05:14;8.10;;;7.53;;
7025;SDS011;3554;42.132;24.786;2022-07-29T02:07:43;7.40;;;6.87;;
7025;SDS011;3554;42.132;24.786;2022-07-29T02:10:12;7.63;;;7.23;;
7025;SDS011;3554;42.132;24.786;2022-07-29T02:12:43;7.77;;;7.07;;
7025;SDS011;3554;42.132;24.786;2022-07-29T02:15:12;9.53;;;7.27;;
7025;SDS011;3554;42.132;24.786;2022-07-29T02:17:43;7.83;;;7.20;;
7025;SDS011;3554;42.132;24.786;2022-07-29T02:20:15;8.70;;;7.30;;
7025;SDS011;3554;42.132;24.786;2022-07-29T02:22:43;7.13;;;6.73;;
7025;SDS011;3554;42.132;24.786;2022-07-29T02:25:11;7.13;;;6.63;;
7025;SDS011;3554;42.132;24.786;2022-07-29T02:27:39;6.70;;;6.07;;
7025;SDS011;3554;42.132;24.786;2022-07-29T02:30:08;6.93;;;6.47;;
7025;SDS011;3554;42.132;24.786;2022-07-29T02:32:39;7.33;;;6.83;;
7025;SDS011;3554;42.132;24.786;2022-07-29T02:35:08;7.40;;;6.80;;
7025;SDS011;3554;42.132;24.786;2022-07-29T02:37:36;6.90;;;6.53;;
7025;SDS011;3554;42.132;24.786;2022-07-29T02:40:04;6.93;;;6.23;;
7025;SDS011;3554;42.132;24.786;2022-07-29T02:42:34;6.60;;;6.10;;
7025;SDS011;3554;42.132;24.786;2022-07-29T02:45:04;6.97;;;6.57;;
7025;SDS011;3554;42.132;24.786;2022-07-29T02:47:34;6.40;;;6.10;;
7025;SDS011;3554;42.132;24.786;2022-07-29T02:50:06;6.83;;;6.47;;
7025;SDS011;3554;42.132;24.786;2022-07-29T02:52:37;10.07;;;6.70;;
7025;SDS011;3554;42.132;24.786;2022-07-29T02:55:10;11.10;;;7.07;;
7025;SDS011;3554;42.132;24.786;2022-07-29T02:57:42;12.80;;;6.40;;
7025;SDS011;3554;42.132;24.786;2022-07-29T03:00:13;7.20;;;6.00;;
7025;SDS011;3554;42.132;24.786;2022-07-29T03:02:43;6.97;;;6.00;;
7025;SDS011;3554;42.132;24.786;2022-07-29T03:05:17;6.67;;;6.17;;
7025;SDS011;3554;42.132;24.786;2022-07-29T03:07:47;7.50;;;6.80;;
7025;SDS011;3554;42.132;24.786;2022-07-29T03:10:17;10.50;;;6.47;;
7025;SDS011;3554;42.132;24.786;2022-07-29T03:12:44;7.33;;;6.77;;
7025;SDS011;3554;42.132;24.786;2022-07-29T03:15:12;7.27;;;6.63;;
7025;SDS011;3554;42.132;24.786;2022-07-29T03:17:40;6.93;;;6.00;;
7025;SDS011;3554;42.132;24.786;2022-07-29T03:20:08;7.50;;;6.57;;
7025;SDS011;3554;42.132;24.786;2022-07-29T03:22:39;7.33;;;6.23;;
7025;SDS011;3554;42.132;24.786;2022-07-29T03:25:09;7.57;;;6.90;;
7025;SDS011;3554;42.132;24.786;2022-07-29T03:27:37;7.13;;;6.47;;
7025;SDS011;3554;42.132;24.786;2022-07-29T03:30:05;7.37;;;6.70;;
7025;SDS011;3554;42.132;24.786;2022-07-29T03:32:33;7.70;;;6.10;;
7025;SDS011;3554;42.132;24.786;2022-07-29T03:35:00;11.87;;;6.30;;
7025;SDS011;3554;42.132;24.786;2022-07-29T03:37:27;7.37;;;6.13;;
7025;SDS011;3554;42.132;24.786;2022-07-29T03:39:57;6.70;;;6.00;;
7025;SDS011;3554;42.132;24.786;2022-07-29T03:42:24;7.53;;;6.80;;
7025;SDS011;3554;42.132;24.786;2022-07-29T03:44:54;6.33;;;5.87;;
7025;SDS011;3554;42.132;24.786;2022-07-29T03:47:24;9.47;;;7.03;;
7025;SDS011;3554;42.132;24.786;2022-07-29T03:49:54;10.13;;;6.67;;
7025;SDS011;3554;42.132;24.786;2022-07-29T03:52:25;8.13;;;6.77;;
7025;SDS011;3554;42.132;24.786;2022-07-29T03:54:52;8.97;;;6.60;;
7025;SDS011;3554;42.132;24.786;2022-07-29T03:57:23;8.30;;;6.93;;
7025;SDS011;3554;42.132;24.786;2022-07-29T03:59:51;7.37;;;6.70;;
7025;SDS011;3554;42.132;24.786;2022-07-29T04:02:19;7.30;;;6.60;;
7025;SDS011;3554;42.132;24.786;2022-07-29T04:04:47;7.13;;;6.67;;
7025;SDS011;3554;42.132;24.786;2022-07-29T04:07:15;7.33;;;6.63;;
7025;SDS011;3554;42.132;24.786;2022-07-29T04:09:41;7.30;;;6.80;;
7025;SDS011;3554;42.132;24.786;2022-07-29T04:12:08;7.67;;;6.97;;
7025;SDS011;3554;42.132;24.786;2022-07-29T04:14:37;15.00;;;7.37;;
7025;SDS011;3554;42.132;24.786;2022-07-29T04:17:04;8.20;;;6.90;;
7025;SDS011;3554;42.132;24.786;2022-07-29T04:19:31;17.77;;;7.33;;
7025;SDS011;3554;42.132;24.786;2022-07-29T04:21:59;8.23;;;7.60;;
7025;SDS011;3554;42.132;24.786;2022-07-29T04:24:26;9.83;;;8.00;;
7025;SDS011;3554;42.132;24.786;2022-07-29T04:26:53;8.10;;;7.63;;
7025;SDS011;3554;42.132;24.786;2022-07-29T04:29:20;8.87;;;8.20;;
7025;SDS011;3554;42.132;24.786;2022-07-29T04:31:48;8.37;;;7.80;;
7025;SDS011;3554;42.132;24.786;2022-07-29T04:34:15;8.63;;;8.00;;
7025;SDS011;3554;42.132;24.786;2022-07-29T04:36:42;8.90;;;7.87;;
7025;SDS011;3554;42.132;24.786;2022-07-29T04:39:09;9.63;;;8.70;;
7025;SDS011;3554;42.132;24.786;2022-07-29T04:41:36;12.13;;;9.50;;
7025;SDS011;3554;42.132;24.786;2022-07-29T04:44:03;14.53;;;8.77;;
7025;SDS011;3554;42.132;24.786;2022-07-29T04:46:31;9.67;;;8.57;;
7025;SDS011;3554;42.132;24.786;2022-07-29T04:48:59;9.27;;;8.60;;
7025;SDS011;3554;42.132;24.786;2022-07-29T04:51:26;8.47;;;8.00;;
7025;SDS011;3554;42.132;24.786;2022-07-29T04:53:52;9.53;;;8.83;;
7025;SDS011;3554;42.132;24.786;2022-07-29T04:56:19;10.30;;;9.57;;
7025;SDS011;3554;42.132;24.786;2022-07-29T04:58:46;10.67;;;9.77;;
7025;SDS011;3554;42.132;24.786;2022-07-29T05:01:13;12.03;;;10.93;;
7025;SDS011;3554;42.132;24.786;2022-07-29T05:03:40;11.50;;;10.30;;
7025;SDS011;3554;42.132;24.786;2022-07-29T05:06:08;11.43;;;10.30;;
7025;SDS011;3554;42.132;24.786;2022-07-29T05:08:35;10.17;;;9.10;;
7025;SDS011;3554;42.132;24.786;2022-07-29T05:11:03;8.43;;;7.80;;
7025;SDS011;3554;42.132;24.786;2022-07-29T05:13:30;8.17;;;7.03;;
7025;SDS011;3554;42.132;24.786;2022-07-29T05:15:57;7.67;;;6.00;;
7025;SDS011;3554;42.132;24.786;2022-07-29T05:18:24;6.67;;;6.00;;
7025;SDS011;3554;42.132;24.786;2022-07-29T05:20:51;5.30;;;4.93;;
7025;SDS011;3554;42.132;24.786;2022-07-29T05:23:19;6.60;;;6.10;;
7025;SDS011;3554;42.132;24.786;2022-07-29T05:25:46;6.40;;;5.90;;
7025;SDS011;3554;42.132;24.786;2022-07-29T05:28:12;6.37;;;5.87;;
7025;SDS011;3554;42.132;24.786;2022-07-29T05:30:40;6.83;;;6.23;;
7025;SDS011;3554;42.132;24.786;2022-07-29T05:33:06;6.53;;;6.03;;
7025;SDS011;3554;42.132;24.786;2022-07-29T05:35:33;6.83;;;5.73;;
7025;SDS011;3554;42.132;24.786;2022-07-29T05:38:02;7.17;;;6.50;;
7025;SDS011;3554;42.132;24.786;2022-07-29T05:40:30;7.83;;;6.03;;
7025;SDS011;3554;42.132;24.786;2022-07-29T05:42:57;9.43;;;6.10;;
7025;SDS011;3554;42.132;24.786;2022-07-29T05:45:24;12.33;;;7.20;;
7025;SDS011;3554;42.132;24.786;2022-07-29T05:47:51;10.47;;;6.40;;
7025;SDS011;3554;42.132;24.786;2022-07-29T05:50:18;6.30;;;5.67;;
7025;SDS011;3554;42.132;24.786;2022-07-29T05:52:45;6.10;;;5.77;;
7025;SDS011;3554;42.132;24.786;2022-07-29T05:55:12;6.20;;;5.60;;
7025;SDS011;3554;42.132;24.786;2022-07-29T05:57:40;6.73;;;6.37;;
7025;SDS011;3554;42.132;24.786;2022-07-29T06:00:09;6.77;;;6.27;;
7025;SDS011;3554;42.132;24.786;2022-07-29T06:02:36;6.77;;;6.17;;
7025;SDS011;3554;42.132;24.786;2022-07-29T06:05:03;9.60;;;6.63;;
7025;SDS011;3554;42.132;24.786;2022-07-29T06:07:31;7.50;;;6.60;;
7025;SDS011;3554;42.132;24.786;2022-07-29T06:09:57;8.27;;;6.07;;
7025;SDS011;3554;42.132;24.786;2022-07-29T06:12:24;7.00;;;6.40;;
7025;SDS011;3554;42.132;24.786;2022-07-29T06:14:52;9.33;;;6.90;;
7025;SDS011;3554;42.132;24.786;2022-07-29T06:17:19;8.33;;;6.57;;
7025;SDS011;3554;42.132;24.786;2022-07-29T06:19:46;7.47;;;6.87;;
7025;SDS011;3554;42.132;24.786;2022-07-29T06:22:14;7.40;;;6.40;;
7025;SDS011;3554;42.132;24.786;2022-07-29T06:24:41;6.77;;;6.20;;
7025;SDS011;3554;42.132;24.786;2022-07-29T06:27:09;7.00;;;6.50;;
7025;SDS011;3554;42.132;24.786;2022-07-29T06:29:35;7.20;;;6.80;;
7025;SDS011;3554;42.132;24.786;2022-07-29T06:32:04;7.13;;;6.50;;
7025;SDS011;3554;42.132;24.786;2022-07-29T06:34:32;7.80;;;7.03;;
7025;SDS011;3554;42.132;24.786;2022-07-29T06:36:58;7.10;;;6.00;;
7025;SDS011;3554;42.132;24.786;2022-07-29T06:39:25;9.20;;;7.20;;
7025;SDS011;3554;42.132;24.786;2022-07-29T06:41:53;7.70;;;6.90;;
7025;SDS011;3554;42.132;24.786;2022-07-29T06:44:20;7.47;;;6.43;;
7025;SDS011;3554;42.132;24.786;2022-07-29T06:46:47;6.53;;;5.97;;
7025;SDS011;3554;42.132;24.786;2022-07-29T06:49:16;7.90;;;7.23;;
7025;SDS011;3554;42.132;24.786;2022-07-29T06:51:43;7.73;;;7.10;;
7025;SDS011;3554;42.132;24.786;2022-07-29T06:54:10;7.57;;;7.07;;
7025;SDS011;3554;42.132;24.786;2022-07-29T06:56:37;8.17;;;7.57;;
7025;SDS011;3554;42.132;24.786;2022-07-29T06:59:07;8.13;;;7.53;;
7025;SDS011;3554;42.132;24.786;2022-07-29T07:01:35;7.43;;;6.93;;
7025;SDS011;3554;42.132;24.786;2022-07-29T07:04:03;7.53;;;6.83;;
7025;SDS011;3554;42.132;24.786;2022-07-29T07:06:31;6.77;;;6.33;;
7025;SDS011;3554;42.132;24.786;2022-07-29T07:08:58;6.80;;;6.33;;
7025;SDS011;3554;42.132;24.786;2022-07-29T07:11:25;7.33;;;6.60;;
7025;SDS011;3554;42.132;24.786;2022-07-29T07:13:52;9.33;;;6.73;;
7025;SDS011;3554;42.132;24.786;2022-07-29T07:16:19;7.10;;;6.53;;
7025;SDS011;3554;42.132;24.786;2022-07-29T07:18:46;7.43;;;6.93;;
7025;SDS011;3554;42.132;24.786;2022-07-29T07:21:13;8.30;;;6.27;;
7025;SDS011;3554;42.132;24.786;2022-07-29T07:23:41;6.80;;;6.27;;
7025;SDS011;3554;42.132;24.786;2022-07-29T07:26:08;6.87;;;6.37;;
7025;SDS011;3554;42.132;24.786;2022-07-29T07:28:35;6.50;;;6.10;;
7025;SDS011;3554;42.132;24.786;2022-07-29T07:31:02;5.97;;;5.57;;
7025;SDS011;3554;42.132;24.786;2022-07-29T07:33:29;5.80;;;4.77;;
7025;SDS011;3554;42.132;24.786;2022-07-29T07:35:56;5.17;;;4.70;;
7025;SDS011;3554;42.132;24.786;2022-07-29T07:38:23;5.43;;;5.00;;
7025;SDS011;3554;42.132;24.786;2022-07-29T07:40:53;8.37;;;5.87;;
7025;SDS011;3554;42.132;24.786;2022-07-29T07:43:19;5.63;;;5.23;;
7025;SDS011;3554;42.132;24.786;2022-07-29T07:45:47;6.27;;;5.77;;
7025;SDS011;3554;42.132;24.786;2022-07-29T07:48:16;5.60;;;5.30;;
7025;SDS011;3554;42.132;24.786;2022-07-29T07:50:43;5.50;;;5.10;;
7025;SDS011;3554;42.132;24.786;2022-07-29T07:53:11;4.80;;;4.60;;
7025;SDS011;3554;42.132;24.786;2022-07-29T07:55:39;5.97;;;5.57;;
7025;SDS011;3554;42.132;24.786;2022-07-29T07:58:07;5.27;;;4.97;;
7025;SDS011;3554;42.132;24.786;2022-07-29T08:00:34;8.43;;;5.50;;
7025;SDS011;3554;42.132;24.786;2022-07-29T08:03:02;5.70;;;5.17;;
7025;SDS011;3554;42.132;24.786;2022-07-29T08:05:29;6.37;;;4.57;;
7025;SDS011;3554;42.132;24.786;2022-07-29T08:07:57;4.00;;;3.70;;
7025;SDS011;3554;42.132;24.786;2022-07-29T08:10:24;4.13;;;3.93;;
7025;SDS011;3554;42.132;24.786;2022-07-29T08:13:10;4.17;;;3.97;;
7025;SDS011;3554;42.132;24.786;2022-07-29T08:15:38;4.93;;;4.27;;
7025;SDS011;3554;42.132;24.786;2022-07-29T08:18:05;3.70;;;3.40;;
7025;SDS011;3554;42.132;24.786;2022-07-29T08:20:32;3.60;;;3.40;;
7025;SDS011;3554;42.132;24.786;2022-07-29T08:23:00;3.57;;;3.30;;
7025;SDS011;3554;42.132;24.786;2022-07-29T08:25:27;3.40;;;3.20;;
7025;SDS011;3554;42.132;24.786;2022-07-29T08:27:54;4.47;;;4.27;;
7025;SDS011;3554;42.132;24.786;2022-07-29T08:30:23;4.73;;;3.60;;
7025;SDS011;3554;42.132;24.786;2022-07-29T08:32:49;5.00;;;4.50;;
7025;SDS011;3554;42.132;24.786;2022-07-29T08:35:18;3.70;;;3.50;;
7025;SDS011;3554;42.132;24.786;2022-07-29T08:37:45;4.10;;;3.80;;
7025;SDS011;3554;42.132;24.786;2022-07-29T08:40:12;3.53;;;3.33;;
7025;SDS011;3554;42.132;24.786;2022-07-29T08:42:39;3.73;;;3.50;;
7025;SDS011;3554;42.132;24.786;2022-07-29T08:45:06;4.90;;;3.80;;
7025;SDS011;3554;42.132;24.786;2022-07-29T08:47:37;4.00;;;3.80;;
7025;SDS011;3554;42.132;24.786;2022-07-29T08:50:05;4.13;;;3.93;;
7025;SDS011;3554;42.132;24.786;2022-07-29T08:52:34;4.07;;;3.87;;
7025;SDS011;3554;42.132;24.786;2022-07-29T08:55:03;4.20;;;3.93;;
7025;SDS011;3554;42.132;24.786;2022-07-29T08:57:31;4.37;;;3.97;;
7025;SDS011;3554;42.132;24.786;2022-07-29T09:00:00;4.20;;;4.00;;
7025;SDS011;3554;42.132;24.786;2022-07-29T09:02:28;3.90;;;3.60;;
7025;SDS011;3554;42.132;24.786;2022-07-29T09:05:00;3.87;;;3.60;;
7025;SDS011;3554;42.132;24.786;2022-07-29T09:07:28;4.73;;;4.13;;
7025;SDS011;3554;42.132;24.786;2022-07-29T09:09:55;4.10;;;3.90;;
7025;SDS011;3554;42.132;24.786;2022-07-29T09:12:22;4.10;;;3.50;;
7025;SDS011;3554;42.132;24.786;2022-07-29T09:14:50;3.00;;;2.80;;
7025;SDS011;3554;42.132;24.786;2022-07-29T09:17:17;3.30;;;3.20;;
7025;SDS011;3554;42.132;24.786;2022-07-29T09:19:44;3.40;;;3.10;;
7025;SDS011;3554;42.132;24.786;2022-07-29T09:22:13;3.43;;;3.23;;
7025;SDS011;3554;42.132;24.786;2022-07-29T09:24:55;3.67;;;3.57;;
7025;SDS011;3554;42.132;24.786;2022-07-29T09:27:22;3.73;;;3.50;;
7025;SDS011;3554;42.132;24.786;2022-07-29T09:29:57;3.23;;;3.03;;
7025;SDS011;3554;42.132;24.786;2022-07-29T09:32:25;6.67;;;3.37;;
7025;SDS011;3554;42.132;24.786;2022-07-29T09:37:42;2.90;;;2.70;;
7025;SDS011;3554;42.132;24.786;2022-07-29T09:40:13;3.53;;;3.23;;
7025;SDS011;3554;42.132;24.786;2022-07-29T09:42:41;2.70;;;2.60;;
7025;SDS011;3554;42.132;24.786;2022-07-29T09:45:08;2.37;;;1.97;;
7025;SDS011;3554;42.132;24.786;2022-07-29T09:47:43;2.73;;;2.53;;
7025;SDS011;3554;42.132;24.786;2022-07-29T09:50:13;3.07;;;2.97;;
7025;SDS011;3554;42.132;24.786;2022-07-29T09:52:46;2.90;;;2.70;;
7025;SDS011;3554;42.132;24.786;2022-07-29T09:55:15;2.87;;;2.70;;
7025;SDS011;3554;42.132;24.786;2022-07-29T09:57:42;2.87;;;2.73;;
7025;SDS011;3554;42.132;24.786;2022-07-29T10:00:10;2.67;;;2.57;;
7025;SDS011;3554;42.132;24.786;2022-07-29T10:02:39;2.27;;;2.17;;
7025;SDS011;3554;42.132;24.786;2022-07-29T10:05:15;2.70;;;2.60;;
7025;SDS011;3554;42.132;24.786;2022-07-29T10:07:45;2.90;;;2.63;;
7025;SDS011;3554;42.132;24.786;2022-07-29T10:10:20;3.00;;;2.80;;
7025;SDS011;3554;42.132;24.786;2022-07-29T10:12:49;3.23;;;2.87;;
7025;SDS011;3554;42.132;24.786;2022-07-29T10:15:18;3.27;;;3.13;;
7025;SDS011;3554;42.132;24.786;2022-07-29T10:17:47;3.03;;;2.70;;
7025;SDS011;3554;42.132;24.786;2022-07-29T10:20:14;2.70;;;2.60;;
7025;SDS011;3554;42.132;24.786;2022-07-29T10:22:42;2.97;;;2.80;;
7025;SDS011;3554;42.132;24.786;2022-07-29T10:25:10;2.80;;;2.67;;
7025;SDS011;3554;42.132;24.786;2022-07-29T10:27:37;3.10;;;2.83;;
7025;SDS011;3554;42.132;24.786;2022-07-29T10:30:05;2.87;;;2.73;;
7025;SDS011;3554;42.132;24.786;2022-07-29T10:32:39;3.00;;;2.90;;
7025;SDS011;3554;42.132;24.786;2022-07-29T10:35:19;3.47;;;3.17;;
7025;SDS011;3554;42.132;24.786;2022-07-29T10:40:51;2.90;;;2.80;;
7025;SDS011;3554;42.132;24.786;2022-07-29T10:43:46;3.20;;;2.90;;
7025;SDS011;3554;42.132;24.786;2022-07-29T10:46:14;3.40;;;3.20;;
7025;SDS011;3554;42.132;24.786;2022-07-29T10:54:44;3.03;;;2.83;;
7025;SDS011;3554;42.132;24.786;2022-07-29T10:57:17;3.50;;;3.00;;
7025;SDS011;3554;42.132;24.786;2022-07-29T10:59:52;4.03;;;3.37;;
7025;SDS011;3554;42.132;24.786;2022-07-29T11:02:57;3.10;;;3.00;;
7025;SDS011;3554;42.132;24.786;2022-07-29T11:05:25;3.30;;;3.10;;
7025;SDS011;3554;42.132;24.786;2022-07-29T11:10:45;4.40;;;3.47;;
7025;SDS011;3554;42.132;24.786;2022-07-29T11:13:13;3.40;;;3.20;;
7025;SDS011;3554;42.132;24.786;2022-07-29T11:16:11;3.87;;;3.50;;
7025;SDS011;3554;42.132;24.786;2022-07-29T11:21:40;3.77;;;3.47;;
7025;SDS011;3554;42.132;24.786;2022-07-29T11:24:11;3.73;;;3.43;;
7025;SDS011;3554;42.132;24.786;2022-07-29T11:26:39;3.23;;;3.00;;
7025;SDS011;3554;42.132;24.786;2022-07-29T11:29:13;4.23;;;3.43;;
7025;SDS011;3554;42.132;24.786;2022-07-29T11:31:45;2.70;;;2.60;;
7025;SDS011;3554;42.132;24.786;2022-07-29T11:34:17;4.07;;;3.33;;
7025;SDS011;3554;42.132;24.786;2022-07-29T11:42:42;4.03;;;2.83;;
7025;SDS011;3554;42.132;24.786;2022-07-29T11:45:13;4.00;;;3.00;;
7025;SDS011;3554;42.132;24.786;2022-07-29T11:47:46;3.37;;;3.07;;
7025;SDS011;3554;42.132;24.786;2022-07-29T11:50:16;3.67;;;3.47;;
7025;SDS011;3554;42.132;24.786;2022-07-29T11:52:52;3.03;;;2.93;;
7025;SDS011;3554;42.132;24.786;2022-07-29T11:55:20;2.90;;;2.80;;
7025;SDS011;3554;42.132;24.786;2022-07-29T11:57:49;3.27;;;2.97;;
7025;SDS011;3554;42.132;24.786;2022-07-29T12:00:26;3.00;;;2.90;;
7025;SDS011;3554;42.132;24.786;2022-07-29T12:02:55;3.07;;;2.87;;
7025;SDS011;3554;42.132;24.786;2022-07-29T12:05:30;3.43;;;2.60;;
7025;SDS011;3554;42.132;24.786;2022-07-29T12:08:09;3.20;;;2.90;;
7025;SDS011;3554;42.132;24.786;2022-07-29T12:10:39;4.83;;;2.87;;
7025;SDS011;3554;42.132;24.786;2022-07-29T12:13:08;3.33;;;2.77;;
7025;SDS011;3554;42.132;24.786;2022-07-29T12:15:36;2.90;;;2.70;;
7025;SDS011;3554;42.132;24.786;2022-07-29T12:18:10;3.53;;;3.03;;
7025;SDS011;3554;42.132;24.786;2022-07-29T12:20:37;3.10;;;2.90;;
7025;SDS011;3554;42.132;24.786;2022-07-29T12:23:05;2.90;;;2.70;;
7025;SDS011;3554;42.132;24.786;2022-07-29T12:25:34;2.80;;;2.60;;
7025;SDS011;3554;42.132;24.786;2022-07-29T12:28:03;2.90;;;2.40;;
7025;SDS011;3554;42.132;24.786;2022-07-29T12:30:39;2.77;;;2.67;;
7025;SDS011;3554;42.132;24.786;2022-07-29T12:33:12;2.90;;;2.80;;
7025;SDS011;3554;42.132;24.786;2022-07-29T12:35:41;3.00;;;2.80;;
7025;SDS011;3554;42.132;24.786;2022-07-29T12:38:09;3.77;;;2.80;;
7025;SDS011;3554;42.132;24.786;2022-07-29T12:40:37;3.45;;;2.95;;
7025;SDS011;3554;42.132;24.786;2022-07-29T12:43:05;3.17;;;3.07;;
7025;SDS011;3554;42.132;24.786;2022-07-29T12:45:36;3.10;;;2.73;;
7025;SDS011;3554;42.132;24.786;2022-07-29T12:48:06;2.70;;;2.60;;
7025;SDS011;3554;42.132;24.786;2022-07-29T12:50:34;2.97;;;2.77;;
7025;SDS011;3554;42.132;24.786;2022-07-29T12:53:08;3.70;;;3.20;;
7025;SDS011;3554;42.132;24.786;2022-07-29T12:55:40;3.57;;;3.37;;
7025;SDS011;3554;42.132;24.786;2022-07-29T12:58:08;3.13;;;3.00;;
7025;SDS011;3554;42.132;24.786;2022-07-29T13:00:35;4.03;;;3.43;;
7025;SDS011;3554;42.132;24.786;2022-07-29T13:03:03;3.30;;;3.20;;
7025;SDS011;3554;42.132;24.786;2022-07-29T13:05:40;3.57;;;3.37;;
7025;SDS011;3554;42.132;24.786;2022-07-29T13:08:11;3.57;;;3.13;;
7025;SDS011;3554;42.132;24.786;2022-07-29T13:10:39;3.90;;;3.60;;
7025;SDS011;3554;42.132;24.786;2022-07-29T13:13:08;3.63;;;3.47;;
7025;SDS011;3554;42.132;24.786;2022-07-29T13:15:36;4.83;;;3.40;;
7025;SDS011;3554;42.132;24.786;2022-07-29T13:18:06;3.63;;;3.33;;
7025;SDS011;3554;42.132;24.786;2022-07-29T13:20:52;3.80;;;3.60;;
7025;SDS011;3554;42.132;24.786;2022-07-29T13:23:20;3.50;;;3.40;;
7025;SDS011;3554;42.132;24.786;2022-07-29T13:25:47;3.35;;;3.15;;
7025;SDS011;3554;42.132;24.786;2022-07-29T13:28:14;3.85;;;3.47;;
7025;SDS011;3554;42.132;24.786;2022-07-29T13:30:41;3.35;;;3.10;;
7025;SDS011;3554;42.132;24.786;2022-07-29T13:33:10;4.10;;;3.90;;
7025;SDS011;3554;42.132;24.786;2022-07-29T13:35:37;3.27;;;3.17;;
7025;SDS011;3554;42.132;24.786;2022-07-29T13:38:04;6.20;;;3.83;;
7025;SDS011;3554;42.132;24.786;2022-07-29T13:40:30;3.60;;;3.30;;
7025;SDS011;3554;42.132;24.786;2022-07-29T13:43:00;3.33;;;3.13;;
7025;SDS011;3554;42.132;24.786;2022-07-29T13:45:27;3.43;;;3.23;;
7025;SDS011;3554;42.132;24.786;2022-07-29T13:47:54;3.40;;;3.20;;
7025;SDS011;3554;42.132;24.786;2022-07-29T13:50:22;5.75;;;3.30;;
7025;SDS011;3554;42.132;24.786;2022-07-29T13:52:49;3.47;;;3.17;;
7025;SDS011;3554;42.132;24.786;2022-07-29T13:55:16;4.15;;;3.72;;
7025;SDS011;3554;42.132;24.786;2022-07-29T13:57:43;8.77;;;3.47;;
7025;SDS011;3554;42.132;24.786;2022-07-29T14:00:10;3.77;;;3.20;;
7025;SDS011;3554;42.132;24.786;2022-07-29T14:02:38;3.38;;;3.25;;
7025;SDS011;3554;42.132;24.786;2022-07-29T14:05:05;2.87;;;2.67;;
7025;SDS011;3554;42.132;24.786;2022-07-29T14:07:34;3.30;;;3.00;;
7025;SDS011;3554;42.132;24.786;2022-07-29T14:10:01;3.80;;;3.20;;
7025;SDS011;3554;42.132;24.786;2022-07-29T14:12:29;5.80;;;3.30;;
7025;SDS011;3554;42.132;24.786;2022-07-29T14:14:55;3.30;;;3.20;;
7025;SDS011;3554;42.132;24.786;2022-07-29T14:17:22;3.23;;;2.93;;
7025;SDS011;3554;42.132;24.786;2022-07-29T14:19:49;4.00;;;2.97;;
7025;SDS011;3554;42.132;24.786;2022-07-29T14:22:16;2.97;;;2.87;;
7025;SDS011;3554;42.132;24.786;2022-07-29T14:24:45;3.03;;;2.83;;
7025;SDS011;3554;42.132;24.786;2022-07-29T14:27:12;2.77;;;2.60;;
7025;SDS011;3554;42.132;24.786;2022-07-29T14:29:39;2.90;;;2.80;;
7025;SDS011;3554;42.132;24.786;2022-07-29T14:32:06;4.97;;;2.73;;
7025;SDS011;3554;42.132;24.786;2022-07-29T14:34:33;2.87;;;2.67;;
7025;SDS011;3554;42.132;24.786;2022-07-29T14:37:00;2.97;;;2.87;;
7025;SDS011;3554;42.132;24.786;2022-07-29T14:39:27;2.47;;;2.37;;
7025;SDS011;3554;42.132;24.786;2022-07-29T14:41:56;3.10;;;2.77;;
7025;SDS011;3554;42.132;24.786;2022-07-29T14:44:23;3.87;;;2.87;;
7025;SDS011;3554;42.132;24.786;2022-07-29T14:46:55;2.60;;;2.50;;
7025;SDS011;3554;42.132;24.786;2022-07-29T14:49:22;2.50;;;2.40;;
7025;SDS011;3554;42.132;24.786;2022-07-29T14:51:49;2.33;;;2.23;;
7025;SDS011;3554;42.132;24.786;2022-07-29T14:54:16;3.40;;;3.10;;
7025;SDS011;3554;42.132;24.786;2022-07-29T14:56:43;2.63;;;2.43;;
7025;SDS011;3554;42.132;24.786;2022-07-29T14:59:11;3.17;;;2.97;;
7025;SDS011;3554;42.132;24.786;2022-07-29T15:01:38;2.90;;;2.65;;
7025;SDS011;3554;42.132;24.786;2022-07-29T15:04:05;2.80;;;2.60;;
7025;SDS011;3554;42.132;24.786;2022-07-29T15:06:32;3.00;;;2.80;;
7025;SDS011;3554;42.132;24.786;2022-07-29T15:08:59;2.50;;;2.40;;
7025;SDS011;3554;42.132;24.786;2022-07-29T15:11:26;3.37;;;3.07;;
7025;SDS011;3554;42.132;24.786;2022-07-29T15:13:52;4.10;;;2.60;;
7025;SDS011;3554;42.132;24.786;2022-07-29T15:16:21;2.63;;;2.43;;
7025;SDS011;3554;42.132;24.786;2022-07-29T15:18:47;3.28;;;2.60;;
7025;SDS011;3554;42.132;24.786;2022-07-29T15:21:14;3.22;;;2.90;;
7025;SDS011;3554;42.132;24.786;2022-07-29T15:23:41;2.90;;;2.80;;
7025;SDS011;3554;42.132;24.786;2022-07-29T15:26:09;2.83;;;2.73;;
7025;SDS011;3554;42.132;24.786;2022-07-29T15:28:35;3.10;;;2.70;;
7025;SDS011;3554;42.132;24.786;2022-07-29T15:31:02;3.00;;;2.70;;
7025;SDS011;3554;42.132;24.786;2022-07-29T15:33:31;3.10;;;2.90;;